Terminal Aerodrome Forecast
Issued by NWS

Home | Current Version | Previous Version | Text Only | Print | Product List | Glossary On
Versions: 1 2 3 4 5 6 7 8 9 10 11 12 13 14 15 16 17 18 19 20 21 22 23
000
FTUS41 KOKX 050527
TAFHPN
TAF
KHPN 050527Z 0506/0606 VRB02KT 5SM BR SCT050 BKN100
      TEMPO 0507/0511 2SM BR
     FM051300 30005KT P6SM FEW050
     FM051600 24006KT P6SM FEW060
     FM051900 18008KT P6SM FEW060
     FM060100 21004KT P6SM SKC
      AMD NOT SKED=

USA.gov is the U.S. government's official web portal to all federal, state and local government web resources and services.